Terminal Aerodrome Forecast
Issued by NWS

Home | Current Version | Previous Version | Text Only | Print | Product List | Glossary On
Versions: 1 2 3 4 5 6 7 8 9 10 11 12 13 14 15 16 17 18 19 20 21 22 23 24
000
FTUS43 KDVN 021100
TAFBRL
TAF
KBRL 021121Z 0212/0312 30008KT P6SM BKN250
     FM022100 14010KT P6SM BKN060
     FM030400 16016KT 4SM -SNPL OVC010
     FM030700 16016KT 4SM FZRA OVC007=

USA.gov is the U.S. government's official web portal to all federal, state and local government web resources and services.